Edenburg, South Africa
Current Conditions -  °F | °C
As of 7:00 PM on Friday 31 Oct 2014 (Local Time) from FABL Reporting Station
Clear Clear  
Wind Chill: 82°   Ceiling: Unl
Heat Index: 82°   Visibility: 6mi
Dew Point: 32°   Wind: 8mph
Humidity: 16%   Direction: 230°SW
Pressure: 30"   Gusts: NA
Location:  29.74°S, 25.94°E
Report Text: FABL 311700Z 23007KT CAVOK 28/00 Q1016 NOSIG
Loading
Personal Weather Stations






























Interactive Weather Map
Tropical Storm Tracking
New forecast layout! Learn more

10-Day Weather Forecast

Advertisements
Track Severe Weather on mobile